sensor_id;sensor_type;location;lat;lon;timestamp;temperature;humidity
8214;DHT22;4148;47.974;7.824;2023-03-01T00:01:40;-1.60;99.90
8214;DHT22;4148;47.974;7.824;2023-03-01T00:04:09;-1.60;99.90
8214;DHT22;4148;47.974;7.824;2023-03-01T00:06:37;-1.70;99.90
8214;DHT22;4148;47.974;7.824;2023-03-01T00:09:04;-1.70;99.90
8214;DHT22;4148;47.974;7.824;2023-03-01T00:11:33;-1.70;99.90
8214;DHT22;4148;47.974;7.824;2023-03-01T00:14:02;-1.70;99.90
8214;DHT22;4148;47.974;7.824;2023-03-01T00:16:34;-1.70;99.90
8214;DHT22;4148;47.974;7.824;2023-03-01T00:19:02;-1.50;99.90
8214;DHT22;4148;47.974;7.824;2023-03-01T00:21:32;-1.40;99.90
8214;DHT22;4148;47.974;7.824;2023-03-01T00:24:00;-1.60;99.90
8214;DHT22;4148;47.974;7.824;2023-03-01T00:26:28;-1.80;99.90
8214;DHT22;4148;47.974;7.824;2023-03-01T00:28:58;-1.90;99.90
8214;DHT22;4148;47.974;7.824;2023-03-01T00:31:28;-1.90;99.90
8214;DHT22;4148;47.974;7.824;2023-03-01T00:33:58;-1.80;99.90
8214;DHT22;4148;47.974;7.824;2023-03-01T00:36:28;-1.80;99.90
8214;DHT22;4148;47.974;7.824;2023-03-01T00:38:58;-1.80;99.90
8214;DHT22;4148;47.974;7.824;2023-03-01T00:41:26;-1.80;99.90
8214;DHT22;4148;47.974;7.824;2023-03-01T00:43:54;-1.60;99.90
8214;DHT22;4148;47.974;7.824;2023-03-01T00:46:23;-1.80;99.90
8214;DHT22;4148;47.974;7.824;2023-03-01T00:48:51;-1.60;99.90
8214;DHT22;4148;47.974;7.824;2023-03-01T00:51:21;-1.50;99.90
8214;DHT22;4148;47.974;7.824;2023-03-01T00:53:52;-1.70;99.90
8214;DHT22;4148;47.974;7.824;2023-03-01T00:56:21;-1.90;99.90
8214;DHT22;4148;47.974;7.824;2023-03-01T00:58:49;-1.70;99.90
8214;DHT22;4148;47.974;7.824;2023-03-01T01:01:19;-1.90;99.90
8214;DHT22;4148;47.974;7.824;2023-03-01T01:03:49;-2.10;99.90
8214;DHT22;4148;47.974;7.824;2023-03-01T01:06:19;-2.20;99.90
8214;DHT22;4148;47.974;7.824;2023-03-01T01:08:48;-2.20;99.90
8214;DHT22;4148;47.974;7.824;2023-03-01T01:11:16;-2.10;99.90
8214;DHT22;4148;47.974;7.824;2023-03-01T01:13:47;-2.20;99.90
8214;DHT22;4148;47.974;7.824;2023-03-01T01:16:15;-2.30;99.90
8214;DHT22;4148;47.974;7.824;2023-03-01T01:18:44;-2.30;99.90
8214;DHT22;4148;47.974;7.824;2023-03-01T01:21:14;-2.30;99.90
8214;DHT22;4148;47.974;7.824;2023-03-01T01:23:43;-2.30;99.90
8214;DHT22;4148;47.974;7.824;2023-03-01T01:26:13;-2.40;99.90
8214;DHT22;4148;47.974;7.824;2023-03-01T01:28:41;-2.40;99.90
8214;DHT22;4148;47.974;7.824;2023-03-01T01:31:10;-2.50;99.90
8214;DHT22;4148;47.974;7.824;2023-03-01T01:33:38;-2.30;99.90
8214;DHT22;4148;47.974;7.824;2023-03-01T01:36:07;-2.30;99.90
8214;DHT22;4148;47.974;7.824;2023-03-01T01:38:37;-2.30;99.90
8214;DHT22;4148;47.974;7.824;2023-03-01T01:41:06;-2.40;99.90
8214;DHT22;4148;47.974;7.824;2023-03-01T01:43:36;-2.40;99.90
8214;DHT22;4148;47.974;7.824;2023-03-01T01:46:05;-2.50;99.90
8214;DHT22;4148;47.974;7.824;2023-03-01T01:48:43;-2.50;99.90
8214;DHT22;4148;47.974;7.824;2023-03-01T01:51:17;-2.20;99.90
8214;DHT22;4148;47.974;7.824;2023-03-01T01:53:49;-2.20;99.90
8214;DHT22;4148;47.974;7.824;2023-03-01T01:56:18;-2.10;99.90
8214;DHT22;4148;47.974;7.824;2023-03-01T01:58:47;-2.10;99.90
8214;DHT22;4148;47.974;7.824;2023-03-01T02:01:16;-2.10;99.90
8214;DHT22;4148;47.974;7.824;2023-03-01T02:03:46;-2.00;99.90
8214;DHT22;4148;47.974;7.824;2023-03-01T02:06:19;-2.20;99.90
8214;DHT22;4148;47.974;7.824;2023-03-01T02:08:49;-2.30;99.90
8214;DHT22;4148;47.974;7.824;2023-03-01T02:11:19;-2.40;99.90
8214;DHT22;4148;47.974;7.824;2023-03-01T02:13:48;-2.50;99.90
8214;DHT22;4148;47.974;7.824;2023-03-01T02:16:17;-2.50;99.90
8214;DHT22;4148;47.974;7.824;2023-03-01T02:18:47;-2.60;99.90
8214;DHT22;4148;47.974;7.824;2023-03-01T02:21:25;-2.40;99.90
8214;DHT22;4148;47.974;7.824;2023-03-01T02:23:55;-2.50;99.90
8214;DHT22;4148;47.974;7.824;2023-03-01T02:26:30;-2.60;99.90
8214;DHT22;4148;47.974;7.824;2023-03-01T02:29:02;-2.70;99.90
8214;DHT22;4148;47.974;7.824;2023-03-01T02:31:32;-2.50;99.90
8214;DHT22;4148;47.974;7.824;2023-03-01T02:34:11;-2.50;99.90
8214;DHT22;4148;47.974;7.824;2023-03-01T02:36:42;-2.60;99.90
8214;DHT22;4148;47.974;7.824;2023-03-01T02:39:15;-2.70;99.90
8214;DHT22;4148;47.974;7.824;2023-03-01T02:41:46;-2.80;99.90
8214;DHT22;4148;47.974;7.824;2023-03-01T02:44:16;-2.60;99.90
8214;DHT22;4148;47.974;7.824;2023-03-01T02:46:46;-2.60;99.90
8214;DHT22;4148;47.974;7.824;2023-03-01T02:49:25;-2.60;99.90
8214;DHT22;4148;47.974;7.824;2023-03-01T02:52:30;-2.30;99.90
8214;DHT22;4148;47.974;7.824;2023-03-01T02:55:04;-2.40;99.90
8214;DHT22;4148;47.974;7.824;2023-03-01T02:57:36;-2.50;99.90
8214;DHT22;4148;47.974;7.824;2023-03-01T03:00:08;-2.60;99.90
8214;DHT22;4148;47.974;7.824;2023-03-01T03:02:37;-2.60;99.90
8214;DHT22;4148;47.974;7.824;2023-03-01T03:05:08;-2.70;99.90
8214;DHT22;4148;47.974;7.824;2023-03-01T03:07:39;-2.50;99.90
8214;DHT22;4148;47.974;7.824;2023-03-01T03:10:10;-2.60;99.90
8214;DHT22;4148;47.974;7.824;2023-03-01T03:12:38;-2.70;99.90
8214;DHT22;4148;47.974;7.824;2023-03-01T03:15:09;-2.80;99.90
8214;DHT22;4148;47.974;7.824;2023-03-01T03:17:40;-2.90;99.90
8214;DHT22;4148;47.974;7.824;2023-03-01T03:20:13;-3.00;99.90
8214;DHT22;4148;47.974;7.824;2023-03-01T03:22:46;-3.00;99.90
8214;DHT22;4148;47.974;7.824;2023-03-01T03:25:14;-3.10;99.90
8214;DHT22;4148;47.974;7.824;2023-03-01T03:27:43;-3.10;99.90
8214;DHT22;4148;47.974;7.824;2023-03-01T03:30:15;-3.10;99.90
8214;DHT22;4148;47.974;7.824;2023-03-01T03:32:44;-3.00;99.90
8214;DHT22;4148;47.974;7.824;2023-03-01T03:35:19;-3.00;99.90
8214;DHT22;4148;47.974;7.824;2023-03-01T03:37:48;-3.00;99.90
8214;DHT22;4148;47.974;7.824;2023-03-01T03:40:34;-2.90;99.90
8214;DHT22;4148;47.974;7.824;2023-03-01T03:43:02;-2.80;99.90
8214;DHT22;4148;47.974;7.824;2023-03-01T03:45:32;-2.70;99.90
8214;DHT22;4148;47.974;7.824;2023-03-01T03:48:00;-2.60;99.90
8214;DHT22;4148;47.974;7.824;2023-03-01T03:50:29;-2.60;99.90
8214;DHT22;4148;47.974;7.824;2023-03-01T03:52:57;-2.70;99.90
8214;DHT22;4148;47.974;7.824;2023-03-01T03:55:24;-2.50;99.90
8214;DHT22;4148;47.974;7.824;2023-03-01T03:57:57;-2.40;99.90
8214;DHT22;4148;47.974;7.824;2023-03-01T04:00:35;-2.40;99.90
8214;DHT22;4148;47.974;7.824;2023-03-01T04:03:03;-2.50;99.90
8214;DHT22;4148;47.974;7.824;2023-03-01T04:05:31;-2.50;99.90
8214;DHT22;4148;47.974;7.824;2023-03-01T04:07:59;-2.50;99.90
8214;DHT22;4148;47.974;7.824;2023-03-01T04:10:34;-2.50;99.90
8214;DHT22;4148;47.974;7.824;2023-03-01T04:13:03;-2.30;99.90
8214;DHT22;4148;47.974;7.824;2023-03-01T04:15:31;-2.20;99.90
8214;DHT22;4148;47.974;7.824;2023-03-01T04:18:01;-1.90;99.90
8214;DHT22;4148;47.974;7.824;2023-03-01T04:20:31;-1.90;99.90
8214;DHT22;4148;47.974;7.824;2023-03-01T04:23:03;-2.00;99.90
8214;DHT22;4148;47.974;7.824;2023-03-01T04:25:38;-2.10;99.90
8214;DHT22;4148;47.974;7.824;2023-03-01T04:28:07;-2.00;99.90
8214;DHT22;4148;47.974;7.824;2023-03-01T04:30:35;-2.00;99.90
8214;DHT22;4148;47.974;7.824;2023-03-01T04:33:06;-2.00;99.90
8214;DHT22;4148;47.974;7.824;2023-03-01T04:35:35;-2.00;99.90
8214;DHT22;4148;47.974;7.824;2023-03-01T04:38:03;-2.00;99.90
8214;DHT22;4148;47.974;7.824;2023-03-01T04:40:32;-1.90;99.90
8214;DHT22;4148;47.974;7.824;2023-03-01T04:43:00;-2.00;99.90
8214;DHT22;4148;47.974;7.824;2023-03-01T04:45:27;-2.00;99.90
8214;DHT22;4148;47.974;7.824;2023-03-01T04:47:55;-1.80;99.90
8214;DHT22;4148;47.974;7.824;2023-03-01T04:50:26;-1.70;99.90
8214;DHT22;4148;47.974;7.824;2023-03-01T04:52:54;-1.70;99.90
8214;DHT22;4148;47.974;7.824;2023-03-01T04:55:26;-1.70;99.90
8214;DHT22;4148;47.974;7.824;2023-03-01T04:57:54;-1.60;99.90
8214;DHT22;4148;47.974;7.824;2023-03-01T05:00:22;-1.50;99.90
8214;DHT22;4148;47.974;7.824;2023-03-01T05:02:52;-1.60;99.90
8214;DHT22;4148;47.974;7.824;2023-03-01T05:05:26;-1.60;99.90
8214;DHT22;4148;47.974;7.824;2023-03-01T05:07:56;-1.50;99.90
8214;DHT22;4148;47.974;7.824;2023-03-01T05:10:25;-1.50;99.90
8214;DHT22;4148;47.974;7.824;2023-03-01T05:12:55;-1.50;99.90
8214;DHT22;4148;47.974;7.824;2023-03-01T05:15:24;-1.50;99.90
8214;DHT22;4148;47.974;7.824;2023-03-01T05:17:52;-1.40;99.90
8214;DHT22;4148;47.974;7.824;2023-03-01T05:20:20;-1.30;99.90
8214;DHT22;4148;47.974;7.824;2023-03-01T05:22:56;-1.10;99.90
8214;DHT22;4148;47.974;7.824;2023-03-01T05:25:25;-1.10;99.90
8214;DHT22;4148;47.974;7.824;2023-03-01T05:27:53;-1.00;99.90
8214;DHT22;4148;47.974;7.824;2023-03-01T05:30:21;-1.00;99.90
8214;DHT22;4148;47.974;7.824;2023-03-01T05:32:50;-1.00;99.90
8214;DHT22;4148;47.974;7.824;2023-03-01T05:35:23;-1.00;99.90
8214;DHT22;4148;47.974;7.824;2023-03-01T05:37:52;-0.90;99.90
8214;DHT22;4148;47.974;7.824;2023-03-01T05:40:22;-0.90;99.90
8214;DHT22;4148;47.974;7.824;2023-03-01T05:42:53;-1.10;99.90
8214;DHT22;4148;47.974;7.824;2023-03-01T05:45:22;-1.10;99.90
8214;DHT22;4148;47.974;7.824;2023-03-01T05:47:50;-1.10;99.90
8214;DHT22;4148;47.974;7.824;2023-03-01T05:50:20;-1.10;99.90
8214;DHT22;4148;47.974;7.824;2023-03-01T05:52:50;-1.10;99.90
8214;DHT22;4148;47.974;7.824;2023-03-01T05:55:20;-0.90;99.90
8214;DHT22;4148;47.974;7.824;2023-03-01T05:57:49;-0.90;99.90
8214;DHT22;4148;47.974;7.824;2023-03-01T06:00:19;-0.70;99.90
8214;DHT22;4148;47.974;7.824;2023-03-01T06:02:49;-0.80;99.90
8214;DHT22;4148;47.974;7.824;2023-03-01T06:05:17;-1.00;99.90
8214;DHT22;4148;47.974;7.824;2023-03-01T06:07:45;-0.90;99.90
8214;DHT22;4148;47.974;7.824;2023-03-01T06:10:13;-1.00;99.90
8214;DHT22;4148;47.974;7.824;2023-03-01T06:12:43;-1.00;99.90
8214;DHT22;4148;47.974;7.824;2023-03-01T06:15:12;-0.80;99.90
8214;DHT22;4148;47.974;7.824;2023-03-01T06:17:42;-0.80;99.90
8214;DHT22;4148;47.974;7.824;2023-03-01T06:20:12;-0.80;99.90
8214;DHT22;4148;47.974;7.824;2023-03-01T06:22:41;-0.80;99.90
8214;DHT22;4148;47.974;7.824;2023-03-01T06:25:10;-0.80;99.90
8214;DHT22;4148;47.974;7.824;2023-03-01T06:27:39;-0.90;99.90
8214;DHT22;4148;47.974;7.824;2023-03-01T06:30:10;-0.80;99.90
8214;DHT22;4148;47.974;7.824;2023-03-01T06:32:38;-0.60;99.90
8214;DHT22;4148;47.974;7.824;2023-03-01T06:35:09;-0.60;99.90
8214;DHT22;4148;47.974;7.824;2023-03-01T06:37:38;-0.60;99.90
8214;DHT22;4148;47.974;7.824;2023-03-01T06:40:07;-0.50;99.90
8214;DHT22;4148;47.974;7.824;2023-03-01T06:42:39;-0.60;99.90
8214;DHT22;4148;47.974;7.824;2023-03-01T06:45:10;-0.40;99.90
8214;DHT22;4148;47.974;7.824;2023-03-01T06:47:38;-0.50;99.90
8214;DHT22;4148;47.974;7.824;2023-03-01T06:50:06;-0.60;99.90
8214;DHT22;4148;47.974;7.824;2023-03-01T06:52:34;-0.60;99.90
8214;DHT22;4148;47.974;7.824;2023-03-01T06:55:02;-0.60;99.90
8214;DHT22;4148;47.974;7.824;2023-03-01T06:57:30;-0.70;99.90
8214;DHT22;4148;47.974;7.824;2023-03-01T06:59:58;-0.60;99.90
8214;DHT22;4148;47.974;7.824;2023-03-01T07:02:27;-0.60;99.90
8214;DHT22;4148;47.974;7.824;2023-03-01T07:04:55;-0.60;99.90
8214;DHT22;4148;47.974;7.824;2023-03-01T07:07:23;-0.50;99.90
8214;DHT22;4148;47.974;7.824;2023-03-01T07:09:51;-0.50;99.90
8214;DHT22;4148;47.974;7.824;2023-03-01T07:12:20;-0.60;99.90
8214;DHT22;4148;47.974;7.824;2023-03-01T07:14:47;-0.60;99.90
8214;DHT22;4148;47.974;7.824;2023-03-01T07:17:15;-0.60;99.90
8214;DHT22;4148;47.974;7.824;2023-03-01T07:19:44;-0.50;99.90
8214;DHT22;4148;47.974;7.824;2023-03-01T07:22:12;-0.40;99.90
8214;DHT22;4148;47.974;7.824;2023-03-01T07:24:40;-0.50;99.90
8214;DHT22;4148;47.974;7.824;2023-03-01T07:27:09;-0.50;99.90
8214;DHT22;4148;47.974;7.824;2023-03-01T07:29:36;-0.40;99.90
8214;DHT22;4148;47.974;7.824;2023-03-01T07:32:05;-0.40;99.90
8214;DHT22;4148;47.974;7.824;2023-03-01T07:34:33;-0.30;99.90
8214;DHT22;4148;47.974;7.824;2023-03-01T07:37:02;-0.20;99.90
8214;DHT22;4148;47.974;7.824;2023-03-01T07:39:30;-0.20;99.90
8214;DHT22;4148;47.974;7.824;2023-03-01T07:41:58;-0.20;99.90
8214;DHT22;4148;47.974;7.824;2023-03-01T07:44:25;-0.10;99.90
8214;DHT22;4148;47.974;7.824;2023-03-01T07:46:54;-0.10;99.90
8214;DHT22;4148;47.974;7.824;2023-03-01T07:49:24;-0.10;99.90
8214;DHT22;4148;47.974;7.824;2023-03-01T07:51:53;0.00;99.90
8214;DHT22;4148;47.974;7.824;2023-03-01T07:54:23;-0.10;99.90
8214;DHT22;4148;47.974;7.824;2023-03-01T07:56:50;0.00;99.90
8214;DHT22;4148;47.974;7.824;2023-03-01T07:59:18;0.00;99.90
8214;DHT22;4148;47.974;7.824;2023-03-01T08:01:46;0.10;99.90
8214;DHT22;4148;47.974;7.824;2023-03-01T08:04:14;0.10;99.90
8214;DHT22;4148;47.974;7.824;2023-03-01T08:06:42;0.10;99.90
8214;DHT22;4148;47.974;7.824;2023-03-01T08:09:10;0.10;99.90
8214;DHT22;4148;47.974;7.824;2023-03-01T08:11:39;0.10;99.90
8214;DHT22;4148;47.974;7.824;2023-03-01T08:14:07;0.10;99.90
8214;DHT22;4148;47.974;7.824;2023-03-01T08:16:34;0.10;99.90
8214;DHT22;4148;47.974;7.824;2023-03-01T08:19:04;0.30;99.90
8214;DHT22;4148;47.974;7.824;2023-03-01T08:21:32;0.20;99.90
8214;DHT22;4148;47.974;7.824;2023-03-01T08:24:02;0.30;99.90
8214;DHT22;4148;47.974;7.824;2023-03-01T08:26:30;0.20;99.90
8214;DHT22;4148;47.974;7.824;2023-03-01T08:29:00;0.20;99.90
8214;DHT22;4148;47.974;7.824;2023-03-01T08:31:31;0.20;99.90
8214;DHT22;4148;47.974;7.824;2023-03-01T08:34:00;0.20;99.90
8214;DHT22;4148;47.974;7.824;2023-03-01T08:36:30;0.40;99.90
8214;DHT22;4148;47.974;7.824;2023-03-01T08:38:59;0.40;99.90
8214;DHT22;4148;47.974;7.824;2023-03-01T08:41:27;0.50;99.90
8214;DHT22;4148;47.974;7.824;2023-03-01T08:43:55;0.60;99.90
8214;DHT22;4148;47.974;7.824;2023-03-01T08:46:27;0.60;99.90
8214;DHT22;4148;47.974;7.824;2023-03-01T08:48:55;0.40;99.90
8214;DHT22;4148;47.974;7.824;2023-03-01T08:51:24;0.60;99.90
8214;DHT22;4148;47.974;7.824;2023-03-01T08:53:53;0.60;99.90
8214;DHT22;4148;47.974;7.824;2023-03-01T08:56:21;0.70;99.90
8214;DHT22;4148;47.974;7.824;2023-03-01T08:58:49;0.70;99.90
8214;DHT22;4148;47.974;7.824;2023-03-01T09:01:18;0.80;99.90
8214;DHT22;4148;47.974;7.824;2023-03-01T09:03:47;0.90;99.90
8214;DHT22;4148;47.974;7.824;2023-03-01T09:06:16;0.90;99.90
8214;DHT22;4148;47.974;7.824;2023-03-01T09:08:45;1.00;99.90
8214;DHT22;4148;47.974;7.824;2023-03-01T09:11:15;1.00;99.90
8214;DHT22;4148;47.974;7.824;2023-03-01T09:13:43;1.00;99.90
8214;DHT22;4148;47.974;7.824;2023-03-01T09:16:13;1.10;99.90
8214;DHT22;4148;47.974;7.824;2023-03-01T09:18:41;1.10;99.90
8214;DHT22;4148;47.974;7.824;2023-03-01T09:21:12;1.10;99.90
8214;DHT22;4148;47.974;7.824;2023-03-01T09:23:41;1.20;99.90
8214;DHT22;4148;47.974;7.824;2023-03-01T09:26:11;1.30;99.90
8214;DHT22;4148;47.974;7.824;2023-03-01T09:28:39;1.30;99.90
8214;DHT22;4148;47.974;7.824;2023-03-01T09:31:07;1.40;99.90
8214;DHT22;4148;47.974;7.824;2023-03-01T09:33:35;1.40;99.90
8214;DHT22;4148;47.974;7.824;2023-03-01T09:36:05;1.40;99.90
8214;DHT22;4148;47.974;7.824;2023-03-01T09:38:35;1.60;99.90
8214;DHT22;4148;47.974;7.824;2023-03-01T09:41:09;1.60;99.90
8214;DHT22;4148;47.974;7.824;2023-03-01T09:43:42;1.70;99.90
8214;DHT22;4148;47.974;7.824;2023-03-01T09:46:13;1.80;99.90
8214;DHT22;4148;47.974;7.824;2023-03-01T09:48:46;1.90;99.90
8214;DHT22;4148;47.974;7.824;2023-03-01T09:51:19;2.00;99.90
8214;DHT22;4148;47.974;7.824;2023-03-01T09:53:51;2.10;99.90
8214;DHT22;4148;47.974;7.824;2023-03-01T09:56:26;2.10;99.90
8214;DHT22;4148;47.974;7.824;2023-03-01T09:59:01;2.10;99.90
8214;DHT22;4148;47.974;7.824;2023-03-01T10:01:36;2.20;99.90
8214;DHT22;4148;47.974;7.824;2023-03-01T10:04:23;2.30;99.90
8214;DHT22;4148;47.974;7.824;2023-03-01T10:07:02;2.40;99.90
8214;DHT22;4148;47.974;7.824;2023-03-01T10:09:36;2.50;99.90
8214;DHT22;4148;47.974;7.824;2023-03-01T10:14:39;2.50;99.90
8214;DHT22;4148;47.974;7.824;2023-03-01T10:17:12;2.40;99.90
8214;DHT22;4148;47.974;7.824;2023-03-01T10:19:46;2.50;99.90
8214;DHT22;4148;47.974;7.824;2023-03-01T10:22:17;2.60;99.90
8214;DHT22;4148;47.974;7.824;2023-03-01T10:24:50;2.70;99.90
8214;DHT22;4148;47.974;7.824;2023-03-01T10:27:22;2.80;99.90
8214;DHT22;4148;47.974;7.824;2023-03-01T10:29:56;3.00;99.90
8214;DHT22;4148;47.974;7.824;2023-03-01T10:32:26;2.90;99.90
8214;DHT22;4148;47.974;7.824;2023-03-01T10:34:54;3.00;99.90
8214;DHT22;4148;47.974;7.824;2023-03-01T10:37:23;3.10;99.90
8214;DHT22;4148;47.974;7.824;2023-03-01T10:40:00;3.20;99.90
8214;DHT22;4148;47.974;7.824;2023-03-01T10:42:34;3.40;99.90
8214;DHT22;4148;47.974;7.824;2023-03-01T10:45:25;3.40;99.90
8214;DHT22;4148;47.974;7.824;2023-03-01T10:48:04;3.50;99.90
8214;DHT22;4148;47.974;7.824;2023-03-01T10:50:33;3.50;99.90
8214;DHT22;4148;47.974;7.824;2023-03-01T10:53:02;3.60;99.90
8214;DHT22;4148;47.974;7.824;2023-03-01T10:55:35;3.70;99.90
8214;DHT22;4148;47.974;7.824;2023-03-01T10:58:12;3.70;99.90
8214;DHT22;4148;47.974;7.824;2023-03-01T11:00:47;3.70;99.90
8214;DHT22;4148;47.974;7.824;2023-03-01T11:03:19;3.80;99.90
8214;DHT22;4148;47.974;7.824;2023-03-01T11:05:57;3.80;99.90
8214;DHT22;4148;47.974;7.824;2023-03-01T11:08:37;3.90;99.90
8214;DHT22;4148;47.974;7.824;2023-03-01T11:11:29;4.00;99.90
8214;DHT22;4148;47.974;7.824;2023-03-01T11:14:00;4.10;99.90
8214;DHT22;4148;47.974;7.824;2023-03-01T11:16:35;4.10;99.90
8214;DHT22;4148;47.974;7.824;2023-03-01T11:19:18;4.10;99.90
8214;DHT22;4148;47.974;7.824;2023-03-01T11:21:59;4.20;99.90
8214;DHT22;4148;47.974;7.824;2023-03-01T11:24:37;4.30;99.90
8214;DHT22;4148;47.974;7.824;2023-03-01T11:27:18;4.30;99.90
8214;DHT22;4148;47.974;7.824;2023-03-01T11:29:50;4.40;99.90
8214;DHT22;4148;47.974;7.824;2023-03-01T11:32:20;4.40;99.90
8214;DHT22;4148;47.974;7.824;2023-03-01T11:34:55;4.50;99.90
8214;DHT22;4148;47.974;7.824;2023-03-01T11:37:33;4.60;99.90
8214;DHT22;4148;47.974;7.824;2023-03-01T11:40:12;4.70;99.90
8214;DHT22;4148;47.974;7.824;2023-03-01T11:42:48;4.80;99.90
8214;DHT22;4148;47.974;7.824;2023-03-01T11:45:22;4.90;99.90
8214;DHT22;4148;47.974;7.824;2023-03-01T11:48:17;4.80;99.90
8214;DHT22;4148;47.974;7.824;2023-03-01T11:50:56;4.90;99.90
8214;DHT22;4148;47.974;7.824;2023-03-01T11:53:42;4.90;99.90
8214;DHT22;4148;47.974;7.824;2023-03-01T11:56:22;5.00;99.90
8214;DHT22;4148;47.974;7.824;2023-03-01T11:59:03;5.20;99.90
8214;DHT22;4148;47.974;7.824;2023-03-01T12:01:49;5.20;99.90
8214;DHT22;4148;47.974;7.824;2023-03-01T12:04:35;5.40;99.90
8214;DHT22;4148;47.974;7.824;2023-03-01T12:07:10;5.50;99.90
8214;DHT22;4148;47.974;7.824;2023-03-01T12:09:50;5.60;99.90
8214;DHT22;4148;47.974;7.824;2023-03-01T12:12:35;5.70;99.90
8214;DHT22;4148;47.974;7.824;2023-03-01T12:15:24;5.80;99.90
8214;DHT22;4148;47.974;7.824;2023-03-01T12:18:11;5.80;99.90
8214;DHT22;4148;47.974;7.824;2023-03-01T12:20:46;6.00;99.90
8214;DHT22;4148;47.974;7.824;2023-03-01T12:23:33;6.10;99.90
8214;DHT22;4148;47.974;7.824;2023-03-01T12:26:10;6.00;99.90
8214;DHT22;4148;47.974;7.824;2023-03-01T12:29:01;6.00;99.90
8214;DHT22;4148;47.974;7.824;2023-03-01T12:31:40;6.10;99.90
8214;DHT22;4148;47.974;7.824;2023-03-01T12:37:17;6.10;99.90
8214;DHT22;4148;47.974;7.824;2023-03-01T12:39:58;6.20;99.90
8214;DHT22;4148;47.974;7.824;2023-03-01T12:42:32;6.00;99.90
8214;DHT22;4148;47.974;7.824;2023-03-01T12:45:26;6.00;99.90
8214;DHT22;4148;47.974;7.824;2023-03-01T12:48:16;5.90;99.90
8214;DHT22;4148;47.974;7.824;2023-03-01T12:50:48;6.00;99.90
8214;DHT22;4148;47.974;7.824;2023-03-01T12:53:23;6.20;99.90
8214;DHT22;4148;47.974;7.824;2023-03-01T12:55:54;6.30;99.90
8214;DHT22;4148;47.974;7.824;2023-03-01T12:58:26;6.60;99.90
8214;DHT22;4148;47.974;7.824;2023-03-01T13:01:20;6.80;99.90
8214;DHT22;4148;47.974;7.824;2023-03-01T13:04:12;6.90;99.90
8214;DHT22;4148;47.974;7.824;2023-03-01T13:06:47;6.70;99.90
8214;DHT22;4148;47.974;7.824;2023-03-01T13:09:25;6.90;99.90
8214;DHT22;4148;47.974;7.824;2023-03-01T13:14:45;7.00;99.90
8214;DHT22;4148;47.974;7.824;2023-03-01T13:17:33;6.80;99.90
8214;DHT22;4148;47.974;7.824;2023-03-01T13:20:15;6.80;99.90
8214;DHT22;4148;47.974;7.824;2023-03-01T13:22:45;6.90;99.90
8214;DHT22;4148;47.974;7.824;2023-03-01T13:25:20;6.60;99.90
8214;DHT22;4148;47.974;7.824;2023-03-01T13:30:59;6.90;99.90
8214;DHT22;4148;47.974;7.824;2023-03-01T13:33:39;6.90;99.90
8214;DHT22;4148;47.974;7.824;2023-03-01T13:36:10;6.90;99.90
8214;DHT22;4148;47.974;7.824;2023-03-01T13:38:46;6.80;99.90
8214;DHT22;4148;47.974;7.824;2023-03-01T13:41:15;6.90;99.90
8214;DHT22;4148;47.974;7.824;2023-03-01T13:43:44;6.80;99.90
8214;DHT22;4148;47.974;7.824;2023-03-01T13:46:17;6.70;99.90
8214;DHT22;4148;47.974;7.824;2023-03-01T13:48:48;6.80;99.90
8214;DHT22;4148;47.974;7.824;2023-03-01T13:51:22;6.70;99.90
8214;DHT22;4148;47.974;7.824;2023-03-01T13:53:53;6.70;99.90
8214;DHT22;4148;47.974;7.824;2023-03-01T13:56:25;6.80;99.90
8214;DHT22;4148;47.974;7.824;2023-03-01T13:58:57;6.70;99.90
8214;DHT22;4148;47.974;7.824;2023-03-01T14:01:28;6.80;99.90
8214;DHT22;4148;47.974;7.824;2023-03-01T14:03:58;6.90;99.90
8214;DHT22;4148;47.974;7.824;2023-03-01T14:06:28;6.80;99.90
8214;DHT22;4148;47.974;7.824;2023-03-01T14:09:04;6.70;99.90
8214;DHT22;4148;47.974;7.824;2023-03-01T14:14:45;6.50;99.90
8214;DHT22;4148;47.974;7.824;2023-03-01T14:20:14;6.60;99.90
8214;DHT22;4148;47.974;7.824;2023-03-01T14:22:46;6.70;99.90
8214;DHT22;4148;47.974;7.824;2023-03-01T14:25:21;6.70;99.90
8214;DHT22;4148;47.974;7.824;2023-03-01T14:27:56;6.80;99.90
8214;DHT22;4148;47.974;7.824;2023-03-01T14:30:27;6.70;99.90
8214;DHT22;4148;47.974;7.824;2023-03-01T14:32:59;6.70;99.90
8214;DHT22;4148;47.974;7.824;2023-03-01T14:35:28;6.60;99.90
8214;DHT22;4148;47.974;7.824;2023-03-01T14:37:58;6.70;99.90
8214;DHT22;4148;47.974;7.824;2023-03-01T14:40:28;6.70;99.90
8214;DHT22;4148;47.974;7.824;2023-03-01T14:42:59;6.60;99.90
8214;DHT22;4148;47.974;7.824;2023-03-01T14:45:29;6.50;99.90
8214;DHT22;4148;47.974;7.824;2023-03-01T14:47:59;6.60;99.90
8214;DHT22;4148;47.974;7.824;2023-03-01T14:50:30;6.60;99.90
8214;DHT22;4148;47.974;7.824;2023-03-01T14:53:01;6.60;99.90
8214;DHT22;4148;47.974;7.824;2023-03-01T14:55:31;6.60;99.90
8214;DHT22;4148;47.974;7.824;2023-03-01T14:58:03;6.60;99.90
8214;DHT22;4148;47.974;7.824;2023-03-01T15:00:33;6.70;99.90
8214;DHT22;4148;47.974;7.824;2023-03-01T15:03:06;6.60;99.90
8214;DHT22;4148;47.974;7.824;2023-03-01T15:05:42;6.80;99.90
8214;DHT22;4148;47.974;7.824;2023-03-01T15:08:17;6.90;99.90
8214;DHT22;4148;47.974;7.824;2023-03-01T15:10:57;6.90;99.90
8214;DHT22;4148;47.974;7.824;2023-03-01T15:13:30;6.80;99.90
8214;DHT22;4148;47.974;7.824;2023-03-01T15:16:09;6.90;99.90
8214;DHT22;4148;47.974;7.824;2023-03-01T15:18:44;6.80;99.90
8214;DHT22;4148;47.974;7.824;2023-03-01T15:21:18;6.90;99.90
8214;DHT22;4148;47.974;7.824;2023-03-01T15:23:53;7.00;99.90
8214;DHT22;4148;47.974;7.824;2023-03-01T15:26:25;6.90;99.90
8214;DHT22;4148;47.974;7.824;2023-03-01T15:28:55;6.90;99.90
8214;DHT22;4148;47.974;7.824;2023-03-01T15:31:26;6.80;99.90
8214;DHT22;4148;47.974;7.824;2023-03-01T15:34:09;6.70;99.90
8214;DHT22;4148;47.974;7.824;2023-03-01T15:36:41;6.80;99.90
8214;DHT22;4148;47.974;7.824;2023-03-01T15:39:35;6.80;99.90
8214;DHT22;4148;47.974;7.824;2023-03-01T15:42:07;6.80;99.90
8214;DHT22;4148;47.974;7.824;2023-03-01T15:44:36;6.70;99.90
8214;DHT22;4148;47.974;7.824;2023-03-01T15:47:23;6.60;99.90
8214;DHT22;4148;47.974;7.824;2023-03-01T15:49:54;6.50;99.90
8214;DHT22;4148;47.974;7.824;2023-03-01T15:52:24;6.50;99.90
8214;DHT22;4148;47.974;7.824;2023-03-01T15:54:59;6.50;99.90
8214;DHT22;4148;47.974;7.824;2023-03-01T15:57:27;6.50;99.90
8214;DHT22;4148;47.974;7.824;2023-03-01T15:59:55;6.40;99.90
8214;DHT22;4148;47.974;7.824;2023-03-01T16:02:24;6.40;99.90
8214;DHT22;4148;47.974;7.824;2023-03-01T16:04:52;6.40;99.90
8214;DHT22;4148;47.974;7.824;2023-03-01T16:07:23;6.30;99.90
8214;DHT22;4148;47.974;7.824;2023-03-01T16:09:53;6.20;99.90
8214;DHT22;4148;47.974;7.824;2023-03-01T16:12:22;6.20;99.90
8214;DHT22;4148;47.974;7.824;2023-03-01T16:14:51;6.10;99.90
8214;DHT22;4148;47.974;7.824;2023-03-01T16:17:19;6.10;99.90
8214;DHT22;4148;47.974;7.824;2023-03-01T16:19:47;6.10;99.90
8214;DHT22;4148;47.974;7.824;2023-03-01T16:22:15;6.00;99.90
8214;DHT22;4148;47.974;7.824;2023-03-01T16:24:42;5.90;99.90
8214;DHT22;4148;47.974;7.824;2023-03-01T16:27:10;5.90;99.90
8214;DHT22;4148;47.974;7.824;2023-03-01T16:29:39;5.80;99.90
8214;DHT22;4148;47.974;7.824;2023-03-01T16:32:07;5.80;99.90
8214;DHT22;4148;47.974;7.824;2023-03-01T16:34:35;5.70;99.90
8214;DHT22;4148;47.974;7.824;2023-03-01T16:37:03;5.70;99.90
8214;DHT22;4148;47.974;7.824;2023-03-01T16:39:31;5.70;99.90
8214;DHT22;4148;47.974;7.824;2023-03-01T16:42:00;5.90;99.90
8214;DHT22;4148;47.974;7.824;2023-03-01T16:44:28;5.80;99.90
8214;DHT22;4148;47.974;7.824;2023-03-01T16:46:57;5.60;99.90
8214;DHT22;4148;47.974;7.824;2023-03-01T16:49:25;5.60;99.90
8214;DHT22;4148;47.974;7.824;2023-03-01T16:51:53;5.60;99.90
8214;DHT22;4148;47.974;7.824;2023-03-01T16:54:21;5.50;99.90
8214;DHT22;4148;47.974;7.824;2023-03-01T16:56:49;5.50;99.90